Time;durP1;ratioP1;P1;durP2;ratioP2;P2;SDS_P1;SDS_P2;PMS_P1;PMS_P2;Temp;Humidity;BMP_temperature;BMP_pressure;BME280_temperature;BME280_humidity;BME280_pressure;Samples;Min_cycle;Max_cycle;Signal;HPM_P1;HPM_P2
2021/03/03 00:01:48;;;;;;;24.73;11.10;;;5.50;73.90;;;;;;4937292;29;20043;-74
2021/03/03 00:04:13;;;;;;;24.10;10.70;;;5.50;73.60;;;;;;4943539;29;20046;-76
2021/03/03 00:06:39;;;;;;;26.57;11.33;;;5.40;73.10;;;;;;4954770;29;20122;-74
2021/03/03 00:09:05;;;;;;;23.87;10.57;;;5.40;73.40;;;;;;4954544;29;20028;-75
2021/03/03 00:11:30;;;;;;;23.87;11.40;;;5.40;73.80;;;;;;4954900;29;20043;-75
2021/03/03 00:13:56;;;;;;;23.37;10.47;;;5.40;74.10;;;;;;4954770;29;20377;-74
2021/03/03 00:16:21;;;;;;;21.63;10.93;;;5.30;74.00;;;;;;4955725;28;20464;-75
2021/03/03 00:18:47;;;;;;;22.33;10.40;;;5.30;74.30;;;;;;4955398;28;20035;-74
2021/03/03 00:21:13;;;;;;;23.37;10.60;;;5.20;73.90;;;;;;4953599;28;21247;-76
2021/03/03 00:23:39;;;;;;;24.40;10.53;;;5.10;74.30;;;;;;4950998;29;20055;-75
2021/03/03 00:26:05;;;;;;;25.03;11.00;;;5.10;74.90;;;;;;4954126;28;20042;-74
2021/03/03 00:28:30;;;;;;;23.07;10.37;;;5.10;74.90;;;;;;4954285;28;20036;-74
2021/03/03 00:30:56;;;;;;;28.37;10.23;;;5.10;74.60;;;;;;4956066;28;20070;-74
2021/03/03 00:33:22;;;;;;;22.30;10.00;;;5.10;74.10;;;;;;4940105;29;20078;-74
2021/03/03 00:35:47;;;;;;;20.17;10.57;;;5.00;74.30;;;;;;4937871;29;20032;-74
2021/03/03 00:38:13;;;;;;;24.73;11.43;;;5.00;74.70;;;;;;4937176;29;20035;-74
2021/03/03 00:40:38;;;;;;;20.23;10.27;;;4.90;74.80;;;;;;4937540;29;20055;-74
2021/03/03 00:43:04;;;;;;;20.37;10.40;;;4.90;75.00;;;;;;4949611;28;20031;-75
2021/03/03 00:45:30;;;;;;;20.33;10.93;;;4.90;75.20;;;;;;4959861;28;20059;-74
2021/03/03 00:47:55;;;;;;;20.60;10.20;;;4.80;75.40;;;;;;4937502;29;20040;-74
2021/03/03 00:50:21;;;;;;;24.07;11.07;;;4.80;75.80;;;;;;4952798;29;20811;-74
2021/03/03 00:52:47;;;;;;;21.03;9.60;;;4.80;75.70;;;;;;4952601;29;20039;-74
2021/03/03 00:55:13;;;;;;;24.60;10.43;;;4.90;75.40;;;;;;4952966;29;20047;-74
2021/03/03 00:57:41;;;;;;;20.93;9.90;;;5.00;74.70;;;;;;4964489;28;20039;-74
2021/03/03 01:00:07;;;;;;;19.57;9.97;;;4.90;74.50;;;;;;4940083;28;20464;-74
2021/03/03 01:02:34;;;;;;;22.73;10.23;;;4.90;75.00;;;;;;4960655;28;20036;-74
2021/03/03 01:05:00;;;;;;;23.60;10.47;;;4.80;75.40;;;;;;4948827;28;20034;-76
2021/03/03 01:07:25;;;;;;;25.57;10.70;;;4.70;75.40;;;;;;4945541;28;20098;-74
2021/03/03 01:09:51;;;;;;;27.33;11.70;;;4.80;75.90;;;;;;4962584;28;20376;-74
2021/03/03 01:12:17;;;;;;;23.93;10.87;;;4.80;75.70;;;;;;4962760;28;20035;-74
2021/03/03 01:14:43;;;;;;;24.10;11.50;;;4.80;75.70;;;;;;4949246;28;20039;-73
2021/03/03 01:17:08;;;;;;;24.63;10.93;;;4.70;75.80;;;;;;4971668;28;20034;-75
2021/03/03 01:19:34;;;;;;;22.73;10.47;;;4.70;75.80;;;;;;4944322;28;20031;-74
2021/03/03 01:22:00;;;;;;;21.97;10.10;;;4.60;76.50;;;;;;4962313;28;20494;-76
2021/03/03 01:24:25;;;;;;;23.57;9.93;;;4.60;76.50;;;;;;4953892;29;20039;-74
2021/03/03 01:26:51;;;;;;;19.73;10.30;;;4.50;76.50;;;;;;4963072;28;20039;-74
2021/03/03 01:29:16;;;;;;;19.07;10.03;;;4.50;76.40;;;;;;4946860;28;20501;-74
2021/03/03 01:31:42;;;;;;;24.53;10.83;;;4.40;76.30;;;;;;4965367;28;20068;-74
2021/03/03 01:34:08;;;;;;;24.87;11.83;;;4.40;76.30;;;;;;4964968;28;20402;-74
2021/03/03 01:36:33;;;;;;;22.07;10.33;;;4.40;76.40;;;;;;4947333;28;20036;-74
2021/03/03 01:38:59;;;;;;;20.17;9.80;;;4.40;76.40;;;;;;4951667;28;20032;-76
2021/03/03 01:41:25;;;;;;;19.73;10.30;;;4.30;76.70;;;;;;4964178;28;20035;-74
2021/03/03 01:43:50;;;;;;;20.70;9.77;;;4.30;76.40;;;;;;4956388;28;20396;-74
2021/03/03 01:46:16;;;;;;;21.93;9.67;;;4.30;76.10;;;;;;4953816;28;20469;-74
2021/03/03 01:48:42;;;;;;;20.63;9.73;;;4.20;76.00;;;;;;4962003;28;20023;-74
2021/03/03 01:51:08;;;;;;;21.03;9.77;;;4.30;76.70;;;;;;4948625;28;20040;-74
2021/03/03 01:53:33;;;;;;;20.53;10.07;;;4.30;76.50;;;;;;4962375;28;20141;-74
2021/03/03 01:55:59;;;;;;;20.93;10.23;;;4.30;76.10;;;;;;4970757;28;20476;-76
2021/03/03 01:58:25;;;;;;;21.07;9.87;;;4.20;76.10;;;;;;4958767;28;20038;-74
2021/03/03 02:00:50;;;;;;;22.23;9.97;;;4.20;76.30;;;;;;4953911;28;20413;-74
2021/03/03 02:03:17;;;;;;;20.80;9.90;;;4.20;76.60;;;;;;4957267;28;20117;-74
2021/03/03 02:05:43;;;;;;;18.93;9.70;;;4.20;76.40;;;;;;4957077;28;20027;-73
2021/03/03 02:08:35;;;;;;;20.17;9.47;;;4.30;76.20;;;;;;4964140;28;20045;-74
2021/03/03 02:11:07;;;;;;;20.17;10.50;;;4.40;75.80;;;;;;4953085;28;20100;-77
2021/03/03 02:13:40;;;;;;;21.25;9.55;;;4.40;75.30;;;;;;4943719;28;20047;-74
2021/03/03 02:16:07;;;;;;;20.57;8.87;;;4.40;75.40;;;;;;4961772;28;20039;-74
2021/03/03 02:18:35;;;;;;;23.87;10.20;;;4.30;75.30;;;;;;4960069;28;20027;-74
2021/03/03 02:21:32;;;;;;;18.83;9.40;;;4.30;75.40;;;;;;4950373;28;20099;-76
2021/03/03 02:23:58;;;;;;;19.73;10.13;;;4.30;75.70;;;;;;4953153;28;20107;-74
2021/03/03 02:26:33;;;;;;;20.73;9.23;;;4.20;76.00;;;;;;4961941;28;20031;-74
2021/03/03 02:29:20;;;;;;;20.23;9.43;;;4.20;76.20;;;;;;4956813;28;20077;-76
2021/03/03 02:31:49;;;;;;;20.67;9.50;;;4.10;76.30;;;;;;4968263;28;20046;-74
2021/03/03 02:34:17;;;;;;;19.83;9.70;;;4.10;76.60;;;;;;4950996;29;20036;-74
2021/03/03 02:36:43;;;;;;;20.70;9.67;;;4.00;76.30;;;;;;4944543;29;20031;-74
2021/03/03 02:39:10;;;;;;;18.50;8.77;;;4.00;76.50;;;;;;4943630;29;20035;-74
2021/03/03 02:41:37;;;;;;;25.27;9.73;;;4.00;76.90;;;;;;4951444;29;20043;-74
2021/03/03 02:44:05;;;;;;;22.67;9.50;;;4.10;76.70;;;;;;4939040;29;20051;-76
2021/03/03 02:46:32;;;;;;;20.70;9.67;;;4.10;77.10;;;;;;4949421;29;20031;-74
2021/03/03 02:48:59;;;;;;;24.03;10.50;;;4.20;76.50;;;;;;4946217;29;20469;-74
2021/03/03 02:51:25;;;;;;;21.50;9.20;;;4.10;76.50;;;;;;4941568;29;20046;-73
2021/03/03 02:53:50;;;;;;;19.70;9.53;;;4.20;76.50;;;;;;4954040;28;20412;-74
2021/03/03 02:56:16;;;;;;;23.50;9.67;;;4.10;76.30;;;;;;4965186;28;20036;-74
2021/03/03 02:58:41;;;;;;;24.07;9.93;;;4.00;76.50;;;;;;4938788;29;20040;-74
2021/03/03 03:01:11;;;;;;;20.00;9.40;;;4.00;76.70;;;;;;4952553;28;20043;-74
2021/03/03 03:04:11;;;;;;;19.10;9.20;;;4.00;77.00;;;;;;4946380;28;20091;-74
2021/03/03 03:06:40;;;;;;;19.10;10.27;;;3.80;77.40;;;;;;4920049;28;20054;-74
2021/03/03 03:09:09;;;;;;;22.70;9.60;;;3.90;77.40;;;;;;4951726;28;20103;-74
2021/03/03 03:11:37;;;;;;;22.30;10.07;;;4.00;76.90;;;;;;4965588;28;20082;-74
2021/03/03 03:14:12;;;;;;;21.37;9.73;;;3.90;76.70;;;;;;4941834;28;20150;-75
2021/03/03 03:16:39;;;;;;;19.30;9.03;;;3.90;77.00;;;;;;4968286;28;20434;-74
2021/03/03 03:19:12;;;;;;;20.10;10.13;;;3.90;77.00;;;;;;4966628;28;20098;-74
2021/03/03 03:21:46;;;;;;;20.07;10.20;;;3.90;77.00;;;;;;4945093;28;20047;-74
2021/03/03 03:24:14;;;;;;;18.70;9.57;;;3.80;76.90;;;;;;4932574;29;20047;-74
2021/03/03 03:26:40;;;;;;;23.93;10.83;;;3.80;77.00;;;;;;4901310;29;20040;-74
2021/03/03 03:29:09;;;;;;;18.03;9.10;;;3.70;77.40;;;;;;4900533;29;20040;-74
2021/03/03 03:31:38;;;;;;;17.37;9.10;;;3.70;77.70;;;;;;4915742;29;20068;-74
2021/03/03 03:34:06;;;;;;;15.90;9.13;;;3.70;77.70;;;;;;4901189;29;20047;-75
2021/03/03 03:36:32;;;;;;;19.33;9.53;;;3.70;78.10;;;;;;4907140;29;20047;-74
2021/03/03 03:38:59;;;;;;;23.80;10.73;;;3.70;78.30;;;;;;4908997;29;20041;-74
2021/03/03 03:41:26;;;;;;;21.03;9.03;;;3.70;78.40;;;;;;4913856;29;20449;-74
2021/03/03 03:43:54;;;;;;;19.33;8.63;;;3.80;78.60;;;;;;4918584;29;20496;-74
2021/03/03 03:46:19;;;;;;;18.23;9.30;;;3.80;79.50;;;;;;4921612;29;20035;-74
2021/03/03 03:48:45;;;;;;;22.17;8.87;;;3.90;78.40;;;;;;4928573;29;20048;-74
2021/03/03 03:51:11;;;;;;;20.03;9.67;;;3.90;78.40;;;;;;4911383;29;20135;-74
2021/03/03 03:53:38;;;;;;;20.37;9.27;;;3.90;78.10;;;;;;4918635;29;20046;-74
2021/03/03 03:56:07;;;;;;;19.17;8.77;;;4.00;77.90;;;;;;4900492;29;20047;-74
2021/03/03 03:58:33;;;;;;;18.47;8.87;;;4.00;77.60;;;;;;4900633;29;20039;-74
2021/03/03 04:00:59;;;;;;;19.70;8.97;;;4.00;77.20;;;;;;4927357;29;20036;-75
2021/03/03 04:03:24;;;;;;;18.53;8.20;;;4.00;77.40;;;;;;4922011;29;20047;-74
2021/03/03 04:05:50;;;;;;;19.27;9.47;;;3.90;77.70;;;;;;4936367;29;20381;-74
2021/03/03 04:08:15;;;;;;;16.87;8.27;;;3.80;78.10;;;;;;4914348;29;20466;-74
2021/03/03 04:10:41;;;;;;;17.53;8.30;;;3.80;78.10;;;;;;4908122;29;20050;-74
2021/03/03 04:13:07;;;;;;;17.30;8.53;;;3.90;78.20;;;;;;4923069;29;20040;-74
2021/03/03 04:15:32;;;;;;;19.67;8.87;;;3.80;78.70;;;;;;4900173;29;20553;-74
2021/03/03 04:17:58;;;;;;;18.17;8.70;;;3.80;78.60;;;;;;4917954;29;20074;-74
2021/03/03 04:20:24;;;;;;;19.70;8.90;;;3.90;78.00;;;;;;4913261;29;20064;-74
2021/03/03 04:22:49;;;;;;;15.27;8.13;;;3.90;77.70;;;;;;4919784;29;20404;-74
2021/03/03 04:25:18;;;;;;;17.03;8.70;;;3.90;77.60;;;;;;4947471;29;20042;-74
2021/03/03 04:27:44;;;;;;;20.40;9.33;;;3.90;77.60;;;;;;4939350;29;20094;-76
2021/03/03 04:30:12;;;;;;;20.87;8.87;;;3.80;77.90;;;;;;4938995;29;20035;-74
2021/03/03 04:32:38;;;;;;;16.57;8.50;;;3.80;78.50;;;;;;4947835;29;20042;-74
2021/03/03 04:35:06;;;;;;;20.10;9.40;;;3.80;78.90;;;;;;4917625;29;20035;-74
2021/03/03 04:37:31;;;;;;;20.70;8.33;;;3.80;79.10;;;;;;4918875;29;20130;-73
2021/03/03 04:39:57;;;;;;;22.60;8.57;;;3.70;79.20;;;;;;4936111;29;20135;-74
2021/03/03 04:42:23;;;;;;;16.03;8.47;;;3.70;79.60;;;;;;4917917;29;20040;-74
2021/03/03 04:44:48;;;;;;;15.37;7.80;;;3.70;79.50;;;;;;4919014;29;20071;-73
2021/03/03 04:47:14;;;;;;;17.57;8.53;;;3.70;79.20;;;;;;4930109;29;20064;-74
2021/03/03 04:49:40;;;;;;;19.60;9.23;;;3.80;78.80;;;;;;4922175;29;20077;-74
2021/03/03 04:52:06;;;;;;;19.77;8.83;;;3.80;78.50;;;;;;4932962;29;20075;-74
2021/03/03 04:54:31;;;;;;;18.43;8.60;;;3.80;78.50;;;;;;4924920;29;20036;-73
2021/03/03 04:56:57;;;;;;;20.30;9.40;;;3.80;78.80;;;;;;4937144;29;20044;-75
2021/03/03 04:59:23;;;;;;;16.50;8.57;;;3.80;78.20;;;;;;4917842;29;20035;-74
2021/03/03 05:01:48;;;;;;;17.20;9.17;;;3.80;78.50;;;;;;4918199;29;20047;-74
2021/03/03 05:04:14;;;;;;;16.40;8.37;;;3.70;78.80;;;;;;4917870;29;20038;-74
2021/03/03 05:06:39;;;;;;;16.13;7.93;;;3.70;79.10;;;;;;4918516;29;20473;-74
2021/03/03 05:09:05;;;;;;;21.83;9.07;;;3.70;79.10;;;;;;4917816;29;20032;-75
2021/03/03 05:11:31;;;;;;;21.87;8.93;;;3.70;79.10;;;;;;4949387;29;20050;-74
2021/03/03 05:13:56;;;;;;;18.93;8.63;;;3.70;79.20;;;;;;4935526;29;20480;-74
2021/03/03 05:16:22;;;;;;;18.93;8.13;;;3.60;79.50;;;;;;4917774;29;20091;-74
2021/03/03 05:18:48;;;;;;;17.37;8.67;;;3.60;79.50;;;;;;4926732;29;20058;-74
2021/03/03 05:21:13;;;;;;;16.60;8.13;;;3.60;79.80;;;;;;4924139;29;20051;-74
2021/03/03 05:23:39;;;;;;;18.17;8.40;;;3.70;79.30;;;;;;4934308;29;20110;-74
2021/03/03 05:26:06;;;;;;;18.50;7.93;;;3.70;79.40;;;;;;4956157;28;20031;-74
2021/03/03 05:28:33;;;;;;;21.30;9.10;;;3.60;79.60;;;;;;4959378;28;20045;-74
2021/03/03 05:30:59;;;;;;;18.27;8.50;;;3.60;79.60;;;;;;4955011;28;20037;-74
2021/03/03 05:33:30;;;;;;;19.23;8.40;;;3.60;79.70;;;;;;4944506;28;20035;-74
2021/03/03 05:35:59;;;;;;;21.50;7.93;;;3.60;80.10;;;;;;4966707;28;20035;-74
2021/03/03 05:38:25;;;;;;;19.63;8.93;;;3.60;80.10;;;;;;4946325;29;20477;-74
2021/03/03 05:40:52;;;;;;;17.17;8.47;;;3.60;79.90;;;;;;4943405;29;20043;-74
2021/03/03 05:43:18;;;;;;;19.43;8.73;;;3.60;80.00;;;;;;4939527;29;20047;-74
2021/03/03 05:45:45;;;;;;;18.87;8.57;;;3.60;80.00;;;;;;4949570;28;20374;-74
2021/03/03 05:48:40;;;;;;;18.87;8.77;;;3.60;80.00;;;;;;4963860;28;20122;-74
2021/03/03 05:51:06;;;;;;;18.23;8.30;;;3.60;80.50;;;;;;4954353;28;20096;-74
2021/03/03 05:53:33;;;;;;;18.80;8.83;;;3.60;80.70;;;;;;4958849;28;20484;-74
2021/03/03 05:56:00;;;;;;;18.33;9.47;;;3.70;80.90;;;;;;4936900;29;20035;-74
2021/03/03 05:58:32;;;;;;;22.30;9.17;;;3.70;81.00;;;;;;4952453;29;20161;-74
2021/03/03 06:00:59;;;;;;;22.13;9.68;;;3.70;80.80;;;;;;4964385;28;20549;-74
2021/03/03 06:03:26;;;;;;;23.80;11.13;;;3.80;81.30;;;;;;4948188;28;20039;-73
2021/03/03 06:05:52;;;;;;;24.63;10.97;;;4.00;83.70;;;;;;4971079;28;20432;-74
2021/03/03 06:08:23;;;;;;;21.70;10.17;;;4.10;83.70;;;;;;4951076;29;20043;-74
2021/03/03 06:10:49;;;;;;;21.17;10.00;;;4.00;83.40;;;;;;4955964;28;20511;-74
2021/03/03 06:13:16;;;;;;;19.07;9.67;;;4.10;82.90;;;;;;4950598;28;20051;-74
2021/03/03 06:15:43;;;;;;;23.37;10.53;;;4.00;81.60;;;;;;4970086;28;20038;-73
2021/03/03 06:18:10;;;;;;;23.93;10.50;;;4.20;83.80;;;;;;4945029;29;20094;-74
2021/03/03 06:20:42;;;;;;;23.93;11.07;;;4.30;83.80;;;;;;4963858;28;20476;-74
2021/03/03 06:23:27;;;;;;;;;;;4.40;83.20;;;;;;4952027;28;20044;-74
2021/03/03 06:25:56;;;;;;;22.47;10.57;;;4.40;83.70;;;;;;4939055;28;19949;-74
2021/03/03 06:28:38;;;;;;;24.70;10.97;;;4.40;83.00;;;;;;4960660;28;20054;-74
2021/03/03 06:31:27;;;;;;;21.50;9.30;;;4.40;83.10;;;;;;4952958;28;20048;-74
2021/03/03 06:34:12;;;;;;;23.53;10.70;;;4.30;81.00;;;;;;4969978;28;20039;-74
2021/03/03 06:36:39;;;;;;;26.27;10.80;;;4.30;82.20;;;;;;4948438;29;20038;-74
2021/03/03 06:39:35;;;;;;;26.77;12.23;;;4.30;82.80;;;;;;4957808;28;20122;-75
2021/03/03 06:42:06;;;;;;;22.83;10.50;;;4.40;84.00;;;;;;4970728;28;20492;-76
2021/03/03 06:44:48;;;;;;;26.57;11.87;;;4.40;83.20;;;;;;4956956;29;20031;-74
2021/03/03 06:47:13;;;;;;;25.52;12.43;;;4.50;83.70;;;;;;4947879;29;20836;-74
2021/03/03 06:49:39;;;;;;;28.50;11.80;;;4.60;83.90;;;;;;4940598;29;20059;-74
2021/03/03 06:52:05;;;;;;;24.23;12.23;;;4.60;84.30;;;;;;4937762;28;20411;-74
2021/03/03 06:54:31;;;;;;;25.90;12.30;;;4.50;83.60;;;;;;4949305;28;20122;-74
2021/03/03 06:56:58;;;;;;;25.37;12.13;;;4.60;83.70;;;;;;4955369;28;20480;-74
2021/03/03 06:59:30;;;;;;;26.80;11.97;;;4.60;83.70;;;;;;4935850;29;20039;-74
2021/03/03 07:01:58;;;;;;;30.58;12.90;;;4.70;83.40;;;;;;4969649;28;20058;-74
2021/03/03 07:04:29;;;;;;;28.83;11.77;;;4.70;83.20;;;;;;4956046;29;20290;-74
2021/03/03 07:07:00;;;;;;;25.38;12.35;;;4.80;82.80;;;;;;4965503;28;20039;-74
2021/03/03 07:09:39;;;;;;;28.07;12.07;;;4.80;82.50;;;;;;4948710;28;20480;-74
2021/03/03 07:12:16;;;;;;;28.23;12.40;;;4.90;82.70;;;;;;4943102;28;20126;-76
2021/03/03 07:15:03;;;;;;;26.77;12.40;;;5.00;82.60;;;;;;4973864;28;20125;-75
2021/03/03 07:17:35;;;;;;;28.07;12.57;;;5.00;82.40;;;;;;4965657;28;20023;-74
2021/03/03 07:20:17;;;;;;;25.03;12.07;;;5.00;82.10;;;;;;4971119;28;20035;-74
2021/03/03 07:22:48;;;;;;;23.58;11.57;;;5.10;82.40;;;;;;4946965;29;20049;-75
2021/03/03 07:25:17;;;;;;;22.55;11.63;;;5.10;81.80;;;;;;4956101;28;20122;-76
2021/03/03 07:27:44;;;;;;;27.53;12.10;;;5.20;81.50;;;;;;4950394;28;20038;-75
2021/03/03 07:30:15;;;;;;;25.77;12.30;;;5.20;81.60;;;;;;4962608;28;20040;-75
2021/03/03 07:32:44;;;;;;;27.23;13.20;;;5.30;81.70;;;;;;4951069;28;20500;-77
2021/03/03 07:35:12;;;;;;;27.17;12.60;;;5.30;81.20;;;;;;4956666;28;20058;-80
2021/03/03 07:37:47;;;;;;;24.33;12.43;;;5.30;81.00;;;;;;4942359;28;20040;-79
2021/03/03 07:40:19;;;;;;;27.57;13.00;;;5.40;81.00;;;;;;4944689;28;20086;-80
2021/03/03 07:42:54;;;;;;;28.90;13.00;;;5.40;81.10;;;;;;4940996;29;20042;-78
2021/03/03 07:45:23;;;;;;;30.90;12.50;;;5.50;81.00;;;;;;4956009;29;20028;-84
2021/03/03 07:47:52;;;;;;;25.60;13.33;;;5.50;80.70;;;;;;4962925;28;20047;-79
2021/03/03 07:50:21;;;;;;;27.87;13.40;;;5.50;80.80;;;;;;4953919;28;20082;-76
2021/03/03 07:52:57;;;;;;;29.47;13.03;;;5.50;80.90;;;;;;4939091;29;20043;-78
2021/03/03 07:55:24;;;;;;;30.27;13.37;;;5.60;80.90;;;;;;4959157;28;20081;-80
2021/03/03 07:57:53;;;;;;;33.07;13.77;;;5.60;80.80;;;;;;4941695;28;20036;-82
2021/03/03 08:00:27;;;;;;;28.63;12.90;;;5.60;81.00;;;;;;4943317;29;20094;-82
2021/03/03 08:02:58;;;;;;;28.00;13.33;;;5.70;81.00;;;;;;4942824;29;20420;-85
2021/03/03 08:05:54;;;;;;;29.42;13.35;;;5.70;81.10;;;;;;4941205;29;20038;-79
2021/03/03 08:08:34;;;;;;;30.53;13.07;;;5.80;81.40;;;;;;4913582;29;20075;-80
2021/03/03 08:11:09;;;;;;;29.97;13.47;;;5.80;81.20;;;;;;4919439;29;20526;-86
2021/03/03 08:13:39;;;;;;;26.13;12.93;;;5.90;80.50;;;;;;4924935;29;20048;-81
2021/03/03 08:16:16;;;;;;;25.00;13.40;;;6.00;80.40;;;;;;4947529;29;20044;-82
2021/03/03 08:18:48;;;;;;;25.07;12.93;;;6.00;80.50;;;;;;4900326;29;20036;-80
2021/03/03 08:21:15;;;;;;;28.17;12.47;;;6.10;80.10;;;;;;4905297;29;20039;-83
2021/03/03 08:23:46;;;;;;;28.37;12.07;;;6.10;79.60;;;;;;4900840;29;20104;-80
2021/03/03 08:26:15;;;;;;;26.63;12.85;;;6.20;79.20;;;;;;4917753;29;20043;-79
2021/03/03 08:28:41;;;;;;;26.10;12.17;;;6.30;78.90;;;;;;4910018;29;20040;-79
2021/03/03 08:31:10;;;;;;;25.37;12.90;;;6.30;78.50;;;;;;4923844;29;20066;-79
2021/03/03 08:33:54;;;;;;;31.07;13.90;;;6.40;78.20;;;;;;4928545;29;20527;-80
2021/03/03 08:36:24;;;;;;;27.93;13.17;;;6.40;78.40;;;;;;4934260;29;20063;-80
2021/03/03 08:38:56;;;;;;;31.50;13.00;;;6.40;78.20;;;;;;4918964;29;20094;-81
2021/03/03 08:41:30;;;;;;;36.70;13.63;;;6.50;77.90;;;;;;4921364;29;20140;-80
2021/03/03 08:44:16;;;;;;;27.97;13.70;;;6.60;77.50;;;;;;4915790;29;20058;-81
2021/03/03 08:46:42;;;;;;;29.93;13.37;;;6.70;77.40;;;;;;4907646;29;20150;-78
2021/03/03 08:49:07;;;;;;;28.50;13.50;;;6.80;77.00;;;;;;4906945;29;20127;-79
2021/03/03 08:51:40;;;;;;;31.33;13.70;;;6.80;77.00;;;;;;4934450;29;20433;-84
2021/03/03 08:54:11;;;;;;;31.17;14.60;;;6.80;77.20;;;;;;4950946;28;20055;-78
2021/03/03 08:56:38;;;;;;;28.17;13.38;;;6.80;77.00;;;;;;4949558;29;20054;-81
2021/03/03 08:59:07;;;;;;;32.90;15.27;;;6.80;76.70;;;;;;4954724;28;20027;-80
2021/03/03 09:01:57;;;;;;;32.53;14.83;;;6.90;76.30;;;;;;4939677;29;20050;-79
2021/03/03 09:04:33;;;;;;;32.23;13.63;;;7.00;76.30;;;;;;4939562;29;20118;-82
2021/03/03 09:07:03;;;;;;;27.77;13.67;;;7.00;76.00;;;;;;4965102;28;20031;-81
2021/03/03 09:09:39;;;;;;;28.17;13.93;;;7.10;76.30;;;;;;4945610;28;20039;-78
2021/03/03 09:12:07;;;;;;;28.47;13.43;;;7.20;76.40;;;;;;4970458;28;20042;-79
2021/03/03 09:14:34;;;;;;;29.00;13.73;;;7.20;75.70;;;;;;4947220;29;20035;-78
2021/03/03 09:17:03;;;;;;;30.63;14.07;;;7.30;76.10;;;;;;4954653;28;20039;-79
2021/03/03 09:19:31;;;;;;;30.00;14.50;;;7.30;75.70;;;;;;4960169;28;20047;-77
2021/03/03 09:21:57;;;;;;;30.87;14.47;;;7.40;75.70;;;;;;4943795;28;20062;-79
2021/03/03 09:24:23;;;;;;;30.80;14.80;;;7.50;75.40;;;;;;4941279;28;20035;-83
2021/03/03 09:26:49;;;;;;;29.47;14.17;;;7.50;75.70;;;;;;4956512;28;20086;-83
2021/03/03 09:29:33;;;;;;;29.73;14.40;;;7.50;75.10;;;;;;4967778;28;20094;-83
2021/03/03 09:32:05;;;;;;;31.93;14.80;;;7.60;74.70;;;;;;4960239;28;20507;-83
2021/03/03 09:34:32;;;;;;;33.03;14.20;;;7.70;73.90;;;;;;4968721;28;20031;-75
2021/03/03 09:37:00;;;;;;;27.67;13.93;;;7.80;73.60;;;;;;4942998;28;20481;-78
2021/03/03 09:39:27;;;;;;;36.37;14.80;;;7.80;73.10;;;;;;4933803;29;20393;-78
2021/03/03 09:41:58;;;;;;;30.30;13.70;;;7.90;73.20;;;;;;4934487;29;20039;-77
2021/03/03 09:44:25;;;;;;;27.13;13.80;;;8.00;72.90;;;;;;4933670;29;20035;-77
2021/03/03 09:47:00;;;;;;;30.47;14.43;;;7.90;72.90;;;;;;4934153;29;20036;-77
2021/03/03 09:49:31;;;;;;;34.60;14.73;;;8.00;72.70;;;;;;4947386;29;20035;-77
2021/03/03 09:51:58;;;;;;;29.83;15.07;;;8.00;72.40;;;;;;4937219;29;20094;-78
2021/03/03 09:54:25;;;;;;;28.60;14.23;;;8.10;72.60;;;;;;4953706;29;20461;-76
2021/03/03 09:56:51;;;;;;;28.07;13.40;;;8.00;72.80;;;;;;4953476;29;20062;-77
2021/03/03 09:59:17;;;;;;;29.97;14.60;;;8.20;72.40;;;;;;4952738;29;20086;-77
2021/03/03 10:01:42;;;;;;;28.43;14.30;;;8.20;72.00;;;;;;4938444;29;20043;-76
2021/03/03 10:04:08;;;;;;;32.40;14.63;;;8.40;71.70;;;;;;4965194;28;20050;-78
2021/03/03 10:06:34;;;;;;;31.57;13.97;;;8.40;70.60;;;;;;4959130;28;20023;-76
2021/03/03 10:09:01;;;;;;;31.33;14.70;;;8.50;70.20;;;;;;4962841;28;20027;-77
2021/03/03 10:11:26;;;;;;;31.92;14.13;;;8.50;70.40;;;;;;4938485;29;20063;-77
2021/03/03 10:14:04;;;;;;;29.63;13.93;;;8.60;70.90;;;;;;4935510;29;20066;-80
2021/03/03 10:16:29;;;;;;;31.45;14.32;;;8.70;69.40;;;;;;4947571;28;20115;-75
2021/03/03 10:19:02;;;;;;;31.20;14.05;;;8.70;69.00;;;;;;4953312;29;20142;-75
2021/03/03 10:21:28;;;;;;;30.05;13.43;;;8.70;68.90;;;;;;4967730;28;20046;-77
2021/03/03 10:23:53;;;;;;;28.48;13.27;;;8.80;68.60;;;;;;4946327;29;20131;-77
2021/03/03 10:26:24;;;;;;;28.95;12.98;;;8.80;68.50;;;;;;4943787;29;20452;-77
2021/03/03 10:28:53;;;;;;;28.77;13.32;;;8.80;68.60;;;;;;4952366;28;20027;-84
2021/03/03 10:31:20;;;;;;;32.08;14.48;;;8.90;68.50;;;;;;4938387;28;20051;-76
2021/03/03 10:33:47;;;;;;;26.15;13.10;;;8.90;68.50;;;;;;4972450;28;20035;-76
2021/03/03 10:36:21;;;;;;;26.70;13.07;;;9.00;68.20;;;;;;4954178;28;20070;-75
2021/03/03 10:38:54;;;;;;;36.50;13.73;;;9.10;68.00;;;;;;4936882;29;20126;-76
2021/03/03 10:41:28;;;;;;;23.27;12.82;;;9.00;67.90;;;;;;4955139;28;20229;-77
2021/03/03 10:43:54;;;;;;;28.42;12.82;;;9.10;67.90;;;;;;4970396;28;20041;-74
2021/03/03 10:46:23;;;;;;;26.75;12.77;;;9.20;67.70;;;;;;4958392;28;20416;-77
2021/03/03 10:48:50;;;;;;;20.75;11.35;;;9.30;67.50;;;;;;4949115;28;20039;-78
2021/03/03 10:51:19;;;;;;;28.50;12.32;;;9.40;67.80;;;;;;4958833;28;20134;-77
2021/03/03 10:53:58;;;;;;;24.92;11.65;;;9.50;66.40;;;;;;4962329;28;20051;-76
2021/03/03 10:56:29;;;;;;;23.23;12.00;;;9.50;65.90;;;;;;4967396;28;20070;-79
2021/03/03 10:58:57;;;;;;;24.13;12.23;;;9.70;66.30;;;;;;4946739;28;20067;-76
2021/03/03 11:01:24;;;;;;;26.83;12.55;;;9.80;65.70;;;;;;4971492;28;20535;-76
2021/03/03 11:03:57;;;;;;;27.05;14.48;;;9.80;65.80;;;;;;4950544;29;20433;-75
2021/03/03 11:06:28;;;;;;;28.88;12.80;;;9.90;66.10;;;;;;4945984;29;20039;-77
2021/03/03 11:08:54;;;;;;;25.47;12.53;;;9.90;66.00;;;;;;4941656;29;20067;-77
2021/03/03 11:11:19;;;;;;;33.60;12.13;;;10.00;65.80;;;;;;4969180;28;20280;-77
2021/03/03 11:13:45;;;;;;;25.73;13.65;;;10.00;64.90;;;;;;4950501;29;20091;-78
2021/03/03 11:16:11;;;;;;;27.25;12.80;;;10.10;64.30;;;;;;4952755;28;20101;-77
2021/03/03 11:18:37;;;;;;;26.15;12.80;;;10.10;64.80;;;;;;4952952;28;20078;-77
2021/03/03 11:21:03;;;;;;;27.30;13.25;;;10.10;64.50;;;;;;4963410;28;20045;-78
2021/03/03 11:23:29;;;;;;;24.42;11.82;;;10.10;64.10;;;;;;4942302;28;20047;-77
2021/03/03 11:25:56;;;;;;;24.48;12.32;;;10.20;64.10;;;;;;4961954;28;20094;-77
2021/03/03 11:28:22;;;;;;;23.02;12.30;;;10.30;63.90;;;;;;4955485;28;20122;-77
2021/03/03 11:30:47;;;;;;;28.08;12.35;;;10.40;63.10;;;;;;4951137;28;20501;-76
2021/03/03 11:33:13;;;;;;;23.80;11.95;;;10.40;62.70;;;;;;4971583;28;20039;-77
2021/03/03 11:35:39;;;;;;;27.15;13.32;;;10.50;62.70;;;;;;4951747;29;20066;-80
2021/03/03 11:38:04;;;;;;;25.45;12.48;;;10.50;62.70;;;;;;4944985;29;20151;-82
2021/03/03 11:40:30;;;;;;;24.35;12.68;;;10.60;62.90;;;;;;4967670;28;20174;-79
2021/03/03 11:42:56;;;;;;;29.48;13.35;;;10.60;62.30;;;;;;4961602;28;20473;-77
2021/03/03 11:45:21;;;;;;;30.17;12.95;;;10.70;61.80;;;;;;4940884;28;20043;-84
2021/03/03 11:47:47;;;;;;;26.65;12.60;;;10.80;61.70;;;;;;4970400;28;20491;-78
2021/03/03 11:50:13;;;;;;;24.10;12.65;;;10.90;61.20;;;;;;4946254;29;20126;-82
2021/03/03 11:52:39;;;;;;;26.88;13.05;;;11.00;60.80;;;;;;4949510;29;20043;-77
2021/03/03 11:55:05;;;;;;;22.65;12.27;;;11.10;60.30;;;;;;4939452;29;20046;-77
2021/03/03 11:57:31;;;;;;;27.17;12.40;;;11.10;59.60;;;;;;4957809;28;20396;-77
2021/03/03 11:59:58;;;;;;;29.63;13.07;;;11.20;59.40;;;;;;4960242;28;20039;-81
2021/03/03 12:02:24;;;;;;;28.58;13.55;;;11.30;58.90;;;;;;4962109;28;20098;-81
2021/03/03 12:04:50;;;;;;;30.23;12.65;;;11.40;59.00;;;;;;4946879;28;20032;-77
2021/03/03 12:07:15;;;;;;;29.23;12.32;;;11.40;58.80;;;;;;4962406;28;20050;-78
2021/03/03 12:09:42;;;;;;;27.23;12.77;;;11.50;58.80;;;;;;4967806;28;20039;-75
2021/03/03 12:12:08;;;;;;;26.15;12.38;;;11.50;58.80;;;;;;4948968;28;20046;-77
2021/03/03 12:14:34;;;;;;;23.83;12.27;;;11.60;59.00;;;;;;4949766;28;20503;-78
2021/03/03 12:17:00;;;;;;;30.38;13.85;;;11.70;58.70;;;;;;4950562;29;20031;-78
2021/03/03 12:19:26;;;;;;;28.45;13.20;;;11.80;59.10;;;;;;4939237;29;20457;-78
2021/03/03 12:21:51;;;;;;;30.27;14.32;;;12.00;58.60;;;;;;4948937;29;20107;-78
2021/03/03 12:24:17;;;;;;;28.23;13.30;;;12.10;58.50;;;;;;4963463;28;20041;-79
2021/03/03 12:26:43;;;;;;;26.48;13.25;;;12.30;57.40;;;;;;4962717;28;20027;-80
2021/03/03 12:29:08;;;;;;;27.15;12.45;;;12.40;57.10;;;;;;4954539;28;20114;-79
2021/03/03 12:31:34;;;;;;;25.35;13.32;;;12.40;56.80;;;;;;4968419;28;20040;-78
2021/03/03 12:34:00;;;;;;;26.75;13.40;;;12.50;57.30;;;;;;4937900;28;20047;-78
2021/03/03 12:36:25;;;;;;;27.77;12.98;;;12.50;57.00;;;;;;4948098;29;20031;-75
2021/03/03 12:38:51;;;;;;;29.00;14.32;;;12.70;56.00;;;;;;4961544;28;20047;-77
2021/03/03 12:41:17;;;;;;;27.13;13.13;;;12.70;55.90;;;;;;4938972;28;20044;-76
2021/03/03 12:43:42;;;;;;;27.77;12.70;;;12.70;56.30;;;;;;4969971;28;20042;-77
2021/03/03 12:46:08;;;;;;;26.27;13.85;;;12.80;55.70;;;;;;4945583;29;20063;-78